nws-alerts: Checking more than four warning/county codes can delay the loading of your pages. You should use a cron job to get the data.

Nearby METAR Reports

 

KOXC - Oxford/Waterbury, Connecticut, USA
Distance from station: NW 7mi, 11km
Updated: 06/18/2024 10:56am
Clear
Clear
 Wind from varies
Wind: varies 6 mph , 9 km/h
Temperature: 81°F , 27°C
Heat Index: 85°F , 29°C
Dew Point: 72°F , 22°C
Humidity: 74%
Barometer: 30.28 inHg , 1025.4 hPa
Clouds: Clear
Visibility: 10 miles , 16 km
2024/06/18 14:56 KOXC 181456Z VRB05KT 10SM CLR 27/22 A3028 RMK AO2 SLP260 T02720217 51006
KHVN - New Haven/Tweed, Connecticut, USA
Distance from station: SE 13mi, 20km
Updated: 06/18/2024 10:53am
Clear
Clear
 Wind from SW
Wind: SW 7 mph , 11 km/h
Temperature: 81°F , 27°C
Heat Index: 84°F , 29°C
Dew Point: 68°F , 20°C
Humidity: 66%
Barometer: 30.26 inHg , 1024.7 hPa
Clouds: Clear
Visibility: 10 miles , 16 km
2024/06/18 14:53 KHVN 181453Z 23006KT 10SM CLR 27/20 A3026 RMK AO2 SLP247 T02670200 51007
 
KMMK - Meriden, Connecticut, USA
Distance from station: NE 13mi, 21km
Updated: 06/18/2024 10:53am
Clear
Clear
 Wind from SSE
Wind: SSE 7 mph , 11 km/h
Temperature: 82°F , 28°C
Heat Index: 84°F , 29°C
Dew Point: 66°F , 19°C
Humidity: 58%
Barometer: 30.24 inHg , 1024 hPa
Clouds: Clear
Visibility: 10 miles , 16 km
2024/06/18 14:53 KMMK 181453Z AUTO 16006KT 10SM CLR 28/19 A3024 RMK AO2 SLP239 T02780189 51005
KBDR - Bridgeport, Connecticut, USA
Distance from station: SSW 17mi, 27km
Updated: 06/18/2024 11:52am
Clear
Clear
 Wind from SSW
Wind: SSW 9 mph , 15 km/h
Temperature: 81°F , 27°C
Heat Index: 83°F , 28°C
Dew Point: 66°F , 19°C
Humidity: 62%
Barometer: 30.26 inHg , 1024.7 hPa
Clouds: Clear
Visibility: 10 miles , 16 km
2024/06/18 15:52 KBDR 181552Z 21008KT 10SM CLR 27/19 A3026 RMK AO2 SLP247 T02720189
 
KDXR - Danbury, Connecticut, USA
Distance from station: W 23mi, 38km
Updated: 06/18/2024 10:53am
Clear
Clear
 Wind from varies
Wind: varies 5 mph , 7 km/h
Temperature: 84°F , 29°C
Heat Index: 88°F , 31°C
Dew Point: 70°F , 21°C
Humidity: 62%
Barometer: 30.26 inHg , 1024.7 hPa
Clouds: Clear
Visibility: 10 miles , 16 km
2024/06/18 14:53 KDXR 181453Z VRB04KT 10SM CLR 29/21 A3026 RMK AO2 SLP243 T02890211 51006